Time;durP1;ratioP1;P1;durP2;ratioP2;P2;SDS_P1;SDS_P2;PMS_P1;PMS_P2;Temp;Humidity;BMP_temperature;BMP_pressure;BME280_temperature;BME280_humidity;BME280_pressure;Samples;Min_cycle;Max_cycle;Signal;HPM_P1;HPM_P2
2024/01/18 00:02:14;;;;;;;1999.90;999.90;;;;;;;;;;5077987;28;20250;-72
2024/01/18 00:04:41;;;;;;;1999.90;999.90;;;;;;;;;;5083291;28;20747;-68
2024/01/18 00:07:09;;;;;;;1999.90;999.90;;;;;;;;;;5080634;28;21193;-72
2024/01/18 00:09:36;;;;;;;1999.90;999.90;;;;;;;;;;5079076;28;20675;-69
2024/01/18 00:12:05;;;;;;;1999.90;999.90;;;;;;;;;;5076524;28;20191;-72
2024/01/18 00:14:33;;;;;;;1999.90;999.90;;;;;;;;;;5083168;28;20194;-72
2024/01/18 00:17:01;;;;;;;1999.90;999.90;;;;;;;;;;5085719;28;20196;-71
2024/01/18 00:19:28;;;;;;;1999.90;999.90;;;;;;;;;;5085554;28;20238;-73
2024/01/18 00:21:56;;;;;;;1999.90;999.90;;;;;;;;;;5085767;28;20205;-72
2024/01/18 00:24:23;;;;;;;1999.90;999.90;;;;;;;;;;5085404;28;20189;-70
2024/01/18 00:26:50;;;;;;;1999.90;999.90;;;;;;;;;;5086154;28;20202;-72
2024/01/18 00:29:18;;;;;;;1999.90;999.90;;;;;;;;;;5085385;28;20191;-70
2024/01/18 00:31:46;;;;;;;1999.90;999.90;;;;;;;;;;5086228;28;20199;-72
2024/01/18 00:34:14;;;;;;;1999.90;999.90;;;;;;;;;;5085064;28;20192;-71
2024/01/18 00:36:41;;;;;;;1999.90;999.90;;;;;;;;;;5085914;28;20197;-71
2024/01/18 00:39:11;;;;;;;1999.90;999.90;;;;;;;;;;5084917;28;20246;-72
2024/01/18 00:41:38;;;;;;;1999.90;999.90;;;;;;;;;;5085875;28;20782;-72
2024/01/18 00:44:06;;;;;;;1999.90;999.90;;;;;;;;;;5084141;28;20672;-73
2024/01/18 00:46:33;;;;;;;1999.90;999.90;;;;;;;;;;5084802;28;20653;-73
2024/01/18 00:49:02;;;;;;;1999.90;999.90;;;;;;;;;;5073198;28;20562;-71
2024/01/18 00:51:29;;;;;;;1999.90;999.90;;;;;;;;;;5084469;28;20207;-73
2024/01/18 00:53:56;;;;;;;1999.90;999.90;;;;;;;;;;5085561;28;20241;-72
2024/01/18 00:56:24;;;;;;;1999.90;999.90;;;;;;;;;;5085983;28;20210;-73
2024/01/18 00:58:51;;;;;;;1999.90;999.90;;;;;;;;;;5084267;28;20216;-73
2024/01/18 01:01:19;;;;;;;1999.90;999.90;;;;;;;;;;5084816;28;20298;-73
2024/01/18 01:03:46;;;;;;;1999.90;999.90;;;;;;;;;;5084890;28;20205;-73
2024/01/18 01:06:15;;;;;;;1999.90;999.90;;;;;;;;;;5086379;28;20196;-72
2024/01/18 01:08:42;;;;;;;1999.90;999.90;;;;;;;;;;5085246;28;20534;-72
2024/01/18 01:11:09;;;;;;;1999.90;999.90;;;;;;;;;;5082120;28;20980;-73
2024/01/18 01:13:37;;;;;;;1999.90;999.90;;;;;;;;;;5074568;28;20210;-71
2024/01/18 01:16:04;;;;;;;1999.90;999.90;;;;;;;;;;5085031;28;21015;-73
2024/01/18 01:18:31;;;;;;;1999.90;999.90;;;;;;;;;;5084752;28;20223;-69
2024/01/18 01:20:59;;;;;;;1999.90;999.90;;;;;;;;;;5084411;28;20199;-73
2024/01/18 01:23:28;;;;;;;1999.90;999.90;;;;;;;;;;5084273;28;20220;-70
2024/01/18 01:25:55;;;;;;;1999.90;999.90;;;;;;;;;;5084865;28;20195;-73
2024/01/18 01:28:22;;;;;;;1999.90;999.90;;;;;;;;;;5079562;28;20207;-72
2024/01/18 01:30:50;;;;;;;1999.90;999.90;;;;;;;;;;5084932;28;20226;-71
2024/01/18 01:33:17;;;;;;;1999.90;999.90;;;;;;;;;;5085916;28;20689;-72
2024/01/18 01:35:44;;;;;;;1999.90;999.90;;;;;;;;;;5085179;28;20202;-72
2024/01/18 01:38:12;;;;;;;1999.90;999.90;;;;;;;;;;5086026;28;20317;-73
2024/01/18 01:40:41;;;;;;;1999.90;999.90;;;;;;;;;;5086108;28;20207;-69
2024/01/18 01:43:09;;;;;;;1999.90;999.90;;;;;;;;;;5085557;28;20197;-72
2024/01/18 01:45:36;;;;;;;1999.90;999.90;;;;;;;;;;5087179;28;21004;-72
2024/01/18 01:48:06;;;;;;;1999.90;999.90;;;;;;;;;;5085199;28;20196;-72
2024/01/18 01:50:33;;;;;;;1999.90;999.90;;;;;;;;;;5084629;28;20200;-72
2024/01/18 01:53:01;;;;;;;1999.90;999.90;;;;;;;;;;5084101;28;20207;-71
2024/01/18 01:55:28;;;;;;;1999.90;999.90;;;;;;;;;;5084013;28;20203;-72
2024/01/18 01:57:57;;;;;;;1999.90;999.90;;;;;;;;;;5085001;28;20214;-72
2024/01/18 02:00:24;;;;;;;1999.90;999.90;;;;;;;;;;5075984;28;20669;-72
2024/01/18 02:02:53;;;;;;;1999.90;999.90;;;;;;;;;;5085044;28;20196;-72
2024/01/18 02:05:21;;;;;;;1999.90;999.90;;;;;;;;;;5086428;28;20211;-72
2024/01/18 02:07:49;;;;;;;1999.90;999.90;;;;;;;;;;5085126;28;20208;-72
2024/01/18 02:10:16;;;;;;;1999.90;999.90;;;;;;;;;;5086208;28;20211;-71
2024/01/18 02:12:44;;;;;;;1999.90;999.90;;;;;;;;;;5085297;28;20235;-65
2024/01/18 02:15:12;;;;;;;1999.90;999.90;;;;;;;;;;5089872;28;21069;-70
2024/01/18 02:17:40;;;;;;;1999.90;999.90;;;;;;;;;;5090587;28;20204;-71
2024/01/18 02:20:08;;;;;;;1999.90;999.90;;;;;;;;;;5091444;28;20202;-72
2024/01/18 02:22:39;;;;;;;1999.90;999.90;;;;;;;;;;5089083;28;20208;-72
2024/01/18 02:25:16;;;;;;;1999.90;999.90;;;;;;;;;;5088429;28;20207;-72
2024/01/18 02:27:43;;;;;;;1999.90;999.90;;;;;;;;;;5085313;28;20192;-71
2024/01/18 02:30:11;;;;;;;1999.90;999.90;;;;;;;;;;5083975;28;20231;-72
2024/01/18 02:32:38;;;;;;;1999.90;999.90;;;;;;;;;;5087546;28;20248;-71
2024/01/18 02:35:06;;;;;;;1999.90;999.90;;;;;;;;;;5081559;28;20189;-72
2024/01/18 02:37:34;;;;;;;1999.90;999.90;;;;;;;;;;5085573;28;20283;-72
2024/01/18 02:40:01;;;;;;;1999.90;999.90;;;;;;;;;;5084497;28;20208;-72
2024/01/18 02:42:32;;;;;;;1999.90;999.90;;;;;;;;;;5084738;28;20279;-72
2024/01/18 02:45:01;;;;;;;1999.90;999.90;;;;;;;;;;5079582;28;20187;-70
2024/01/18 02:47:29;;;;;;;1999.90;999.90;;;;;;;;;;5071468;28;20202;-71
2024/01/18 02:49:56;;;;;;;1999.90;999.90;;;;;;;;;;5069262;28;20196;-72
2024/01/18 02:52:24;;;;;;;1999.90;999.90;;;;;;;;;;5083014;28;20546;-70
2024/01/18 02:54:51;;;;;;;1999.90;999.90;;;;;;;;;;5079309;28;20219;-72
2024/01/18 02:57:19;;;;;;;1999.90;999.90;;;;;;;;;;5083555;28;20197;-69
2024/01/18 02:59:48;;;;;;;1999.90;999.90;;;;;;;;;;5083914;28;20227;-72
2024/01/18 03:02:15;;;;;;;1999.90;999.90;;;;;;;;;;5083757;28;20196;-72
2024/01/18 03:04:43;;;;;;;1999.90;999.90;;;;;;;;;;5080363;28;20646;-66
2024/01/18 03:07:10;;;;;;;1999.90;999.90;;;;;;;;;;5083325;28;20199;-72
2024/01/18 03:09:38;;;;;;;1999.90;999.90;;;;;;;;;;5077583;28;20926;-70
2024/01/18 03:12:05;;;;;;;1999.90;999.90;;;;;;;;;;5072412;28;20201;-70
2024/01/18 03:14:33;;;;;;;1999.90;999.90;;;;;;;;;;5083401;28;20281;-71
2024/01/18 03:17:02;;;;;;;1999.90;999.90;;;;;;;;;;5087286;28;20234;-72
2024/01/18 03:19:29;;;;;;;1999.90;999.90;;;;;;;;;;5087143;28;20227;-71
2024/01/18 03:21:56;;;;;;;1999.90;999.90;;;;;;;;;;5085864;28;20639;-70
2024/01/18 03:24:24;;;;;;;1999.90;999.90;;;;;;;;;;5084992;28;20197;-71
2024/01/18 03:26:52;;;;;;;1999.90;999.90;;;;;;;;;;5073908;28;20571;-68
2024/01/18 03:29:19;;;;;;;1999.90;999.90;;;;;;;;;;5079972;28;20199;-71
2024/01/18 03:31:47;;;;;;;1999.90;999.90;;;;;;;;;;5066876;28;20187;-72
2024/01/18 03:34:15;;;;;;;1999.90;999.90;;;;;;;;;;5048795;28;20238;-69
2024/01/18 03:36:43;;;;;;;1999.90;999.90;;;;;;;;;;5058904;28;20200;-71
2024/01/18 03:39:11;;;;;;;1999.90;999.90;;;;;;;;;;5044551;28;20267;-72
2024/01/18 03:41:38;;;;;;;1999.90;999.90;;;;;;;;;;5065317;28;20203;-71
2024/01/18 03:44:05;;;;;;;1999.90;999.90;;;;;;;;;;5064998;28;20196;-72
2024/01/18 03:46:33;;;;;;;1999.90;999.90;;;;;;;;;;5049664;28;20201;-72
2024/01/18 03:49:00;;;;;;;1999.90;999.90;;;;;;;;;;5065464;28;20216;-72
2024/01/18 03:51:29;;;;;;;1999.90;999.90;;;;;;;;;;5068323;28;20193;-71
2024/01/18 03:53:56;;;;;;;1999.90;999.90;;;;;;;;;;5049124;28;20670;-72
2024/01/18 03:56:23;;;;;;;1999.90;999.90;;;;;;;;;;5066491;28;20233;-70
2024/01/18 03:58:50;;;;;;;1999.90;999.90;;;;;;;;;;5067494;28;20219;-70
2024/01/18 04:01:18;;;;;;;1999.90;999.90;;;;;;;;;;5048901;28;20206;-71
2024/01/18 04:03:48;;;;;;;1999.90;999.90;;;;;;;;;;5048674;28;20536;-71
2024/01/18 04:06:16;;;;;;;1999.90;999.90;;;;;;;;;;5066655;28;20195;-71
2024/01/18 04:08:45;;;;;;;1999.90;999.90;;;;;;;;;;5066490;28;20241;-71
2024/01/18 04:11:13;;;;;;;1999.90;999.90;;;;;;;;;;5047856;28;20566;-73
2024/01/18 04:13:41;;;;;;;1999.90;999.90;;;;;;;;;;5058177;28;20204;-71
2024/01/18 04:16:09;;;;;;;1999.90;999.90;;;;;;;;;;5063474;28;20196;-71
2024/01/18 04:18:36;;;;;;;1999.90;999.90;;;;;;;;;;5067288;28;20234;-71
2024/01/18 04:21:03;;;;;;;1999.90;999.90;;;;;;;;;;5066419;28;20188;-70
2024/01/18 04:23:31;;;;;;;1999.90;999.90;;;;;;;;;;5066682;28;20195;-71
2024/01/18 04:25:59;;;;;;;1999.90;999.90;;;;;;;;;;5065854;28;21012;-71
2024/01/18 04:28:27;;;;;;;1999.90;999.90;;;;;;;;;;5066350;28;20201;-71
2024/01/18 04:30:54;;;;;;;1999.90;999.90;;;;;;;;;;5079981;28;20231;-68
2024/01/18 04:33:21;;;;;;;1999.90;999.90;;;;;;;;;;5085742;28;20195;-71
2024/01/18 04:35:48;;;;;;;1999.90;999.90;;;;;;;;;;5086368;28;20199;-69
2024/01/18 04:38:16;;;;;;;1999.90;999.90;;;;;;;;;;5086290;28;20674;-71
2024/01/18 04:40:43;;;;;;;1999.90;999.90;;;;;;;;;;5085740;28;20278;-71
2024/01/18 04:43:13;;;;;;;1999.90;999.90;;;;;;;;;;5085760;28;20212;-71
2024/01/18 04:45:40;;;;;;;1999.90;999.90;;;;;;;;;;5086416;28;20180;-71
2024/01/18 04:48:08;;;;;;;1999.90;999.90;;;;;;;;;;5086721;28;20226;-68
2024/01/18 04:50:35;;;;;;;1999.90;999.90;;;;;;;;;;5074072;28;20202;-70
2024/01/18 04:53:05;;;;;;;1999.90;999.90;;;;;;;;;;5084812;28;20572;-69
2024/01/18 04:55:32;;;;;;;1999.90;999.90;;;;;;;;;;5074395;28;20306;-71
2024/01/18 04:58:00;;;;;;;1999.90;999.90;;;;;;;;;;5084672;28;20190;-71
2024/01/18 05:00:28;;;;;;;1999.90;999.90;;;;;;;;;;5084648;28;20689;-71
2024/01/18 05:02:56;;;;;;;1999.90;999.90;;;;;;;;;;5084073;28;20210;-71
2024/01/18 05:05:23;;;;;;;1999.90;999.90;;;;;;;;;;5085087;28;20248;-71
2024/01/18 05:07:51;;;;;;;1999.90;999.90;;;;;;;;;;5084378;28;20198;-71
2024/01/18 05:10:18;;;;;;;1999.90;999.90;;;;;;;;;;5084915;28;20710;-71
2024/01/18 05:12:46;;;;;;;1999.90;999.90;;;;;;;;;;5082501;28;20199;-68
2024/01/18 05:15:13;;;;;;;1999.90;999.90;;;;;;;;;;5065946;28;20234;-69
2024/01/18 05:17:43;;;;;;;1999.90;999.90;;;;;;;;;;5080432;28;20803;-72
2024/01/18 05:20:12;;;;;;;1999.90;999.90;;;;;;;;;;5086399;28;20298;-72
2024/01/18 05:22:39;;;;;;;1999.90;999.90;;;;;;;;;;5085003;28;20203;-72
2024/01/18 05:25:07;;;;;;;1999.90;999.90;;;;;;;;;;5077149;28;20198;-71
2024/01/18 05:27:36;;;;;;;1999.90;999.90;;;;;;;;;;5064463;28;20201;-69
2024/01/18 05:30:04;;;;;;;1999.90;999.90;;;;;;;;;;5067811;28;20231;-71
2024/01/18 05:32:32;;;;;;;1999.90;999.90;;;;;;;;;;5074966;28;20285;-71
2024/01/18 05:35:02;;;;;;;1999.90;999.90;;;;;;;;;;5082507;28;20194;-71
2024/01/18 05:37:29;;;;;;;1999.90;999.90;;;;;;;;;;5082381;28;20191;-70
2024/01/18 05:39:57;;;;;;;1999.90;999.90;;;;;;;;;;5079956;28;20210;-71
2024/01/18 05:42:24;;;;;;;1999.90;999.90;;;;;;;;;;5068722;28;20198;-70
2024/01/18 05:44:52;;;;;;;1999.90;999.90;;;;;;;;;;5065995;28;20228;-70
2024/01/18 05:47:20;;;;;;;1999.90;999.90;;;;;;;;;;5082587;28;20306;-68
2024/01/18 05:49:48;;;;;;;1999.90;999.90;;;;;;;;;;5077073;28;20295;-69
2024/01/18 05:52:17;;;;;;;1999.90;999.90;;;;;;;;;;5067003;28;20202;-70
2024/01/18 05:54:44;;;;;;;1999.90;999.90;;;;;;;;;;5075164;28;20675;-64
2024/01/18 05:57:11;;;;;;;1999.90;999.90;;;;;;;;;;5068815;28;20199;-70
2024/01/18 05:59:39;;;;;;;1999.90;999.90;;;;;;;;;;5082435;28;20218;-70
2024/01/18 06:02:09;;;;;;;1999.90;999.90;;;;;;;;;;5066454;28;20206;-70
2024/01/18 06:04:36;;;;;;;1999.90;999.90;;;;;;;;;;5061672;28;20199;-70
2024/01/18 06:07:04;;;;;;;1999.90;999.90;;;;;;;;;;5068743;28;20198;-69
2024/01/18 06:09:32;;;;;;;1999.90;999.90;;;;;;;;;;5080029;28;20636;-71
2024/01/18 06:12:00;;;;;;;1999.90;999.90;;;;;;;;;;5069868;28;20202;-70
2024/01/18 06:14:27;;;;;;;1999.90;999.90;;;;;;;;;;5081414;28;20194;-70
2024/01/18 06:16:54;;;;;;;1999.90;999.90;;;;;;;;;;5077401;28;20191;-70
2024/01/18 06:19:22;;;;;;;1999.90;999.90;;;;;;;;;;5079230;28;20218;-67
2024/01/18 06:21:49;;;;;;;1999.90;999.90;;;;;;;;;;5071085;28;20759;-70
2024/01/18 06:24:17;;;;;;;1999.90;999.90;;;;;;;;;;5054024;28;20199;-70
2024/01/18 06:26:45;;;;;;;1999.90;999.90;;;;;;;;;;5052312;28;20198;-70
2024/01/18 06:29:16;;;;;;;1999.90;999.90;;;;;;;;;;5054933;28;20188;-65
2024/01/18 06:31:43;;;;;;;1999.90;999.90;;;;;;;;;;5053413;28;20238;-68
2024/01/18 06:34:11;;;;;;;1999.90;999.90;;;;;;;;;;5053004;28;20209;-67
2024/01/18 06:36:39;;;;;;;1999.90;999.90;;;;;;;;;;5053473;28;20199;-63
2024/01/18 06:39:07;;;;;;;1999.90;999.90;;;;;;;;;;5052670;28;20195;-67
2024/01/18 06:41:34;;;;;;;1999.90;999.90;;;;;;;;;;5053105;28;20873;-66
2024/01/18 06:44:06;;;;;;;1999.90;999.90;;;;;;;;;;5052641;28;20213;-68
2024/01/18 06:46:34;;;;;;;1999.90;999.90;;;;;;;;;;5051277;28;20640;-65
2024/01/18 06:49:01;;;;;;;1999.90;999.90;;;;;;;;;;5053948;28;20194;-63
2024/01/18 06:51:29;;;;;;;1999.90;999.90;;;;;;;;;;5049440;28;20696;-64
2024/01/18 06:53:58;;;;;;;1999.90;999.90;;;;;;;;;;5049419;28;20207;-67
2024/01/18 06:56:25;;;;;;;1999.90;999.90;;;;;;;;;;5050432;28;20201;-66
2024/01/18 06:58:54;;;;;;;1999.90;999.90;;;;;;;;;;5056640;28;20200;-65
2024/01/18 07:01:29;;;;;;;1999.90;999.90;;;;;;;;;;5053220;28;20210;-63
2024/01/18 07:03:56;;;;;;;1999.90;999.90;;;;;;;;;;5053565;28;20571;-63
2024/01/18 07:06:24;;;;;;;1999.90;999.90;;;;;;;;;;5052558;28;21733;-67
2024/01/18 07:08:52;;;;;;;1999.90;999.90;;;;;;;;;;5051824;28;20194;-65
2024/01/18 07:11:19;;;;;;;1999.90;999.90;;;;;;;;;;5049381;28;20199;-65
2024/01/18 07:13:46;;;;;;;1999.90;999.90;;;;;;;;;;5048803;28;20901;-63
2024/01/18 07:16:14;;;;;;;1999.90;999.90;;;;;;;;;;5052911;28;20193;-61
2024/01/18 07:18:42;;;;;;;1999.90;999.90;;;;;;;;;;5050985;28;20203;-62
2024/01/18 07:21:16;;;;;;;1999.90;999.90;;;;;;;;;;5053426;28;20215;-67
2024/01/18 07:23:47;;;;;;;1999.90;999.90;;;;;;;;;;5047483;28;20561;-61
2024/01/18 07:26:14;;;;;;;1999.90;999.90;;;;;;;;;;5052641;28;22216;-64
2024/01/18 07:28:42;;;;;;;1999.90;999.90;;;;;;;;;;5051933;28;20202;-68
2024/01/18 07:31:10;;;;;;;1999.90;999.90;;;;;;;;;;5051877;28;20194;-64
2024/01/18 07:33:38;;;;;;;1999.90;999.90;;;;;;;;;;5050895;28;20195;-68
2024/01/18 07:36:07;;;;;;;1999.90;999.90;;;;;;;;;;5050104;28;20203;-63
2024/01/18 07:38:38;;;;;;;1999.90;999.90;;;;;;;;;;5052759;28;20286;-64
2024/01/18 07:41:06;;;;;;;1999.90;999.90;;;;;;;;;;5053293;28;20207;-64
2024/01/18 07:43:36;;;;;;;1999.90;999.90;;;;;;;;;;5052714;28;20251;-63
2024/01/18 07:46:04;;;;;;;1999.90;999.90;;;;;;;;;;5050838;28;20199;-62
2024/01/18 07:48:34;;;;;;;1999.90;999.90;;;;;;;;;;5052611;28;20210;-62
2024/01/18 07:51:01;;;;;;;1999.90;999.90;;;;;;;;;;5053077;28;20859;-68
2024/01/18 07:53:30;;;;;;;1999.90;999.90;;;;;;;;;;5051040;28;20234;-68
2024/01/18 07:55:57;;;;;;;1999.90;999.90;;;;;;;;;;5050795;28;20199;-68
2024/01/18 07:58:25;;;;;;;1999.90;999.90;;;;;;;;;;5054825;28;20195;-63
2024/01/18 08:00:53;;;;;;;1999.90;999.90;;;;;;;;;;5057655;28;20225;-66
2024/01/18 08:03:20;;;;;;;1999.90;999.90;;;;;;;;;;5054866;28;20242;-62
2024/01/18 08:05:47;;;;;;;1999.90;999.90;;;;;;;;;;5055489;28;20196;-63
2024/01/18 08:08:15;;;;;;;1999.90;999.90;;;;;;;;;;5051731;28;20252;-66
2024/01/18 08:10:46;;;;;;;1999.90;999.90;;;;;;;;;;5051274;28;20195;-65
2024/01/18 08:13:13;;;;;;;1999.90;999.90;;;;;;;;;;5058659;28;20703;-67
2024/01/18 08:15:42;;;;;;;1999.90;999.90;;;;;;;;;;5052784;28;20224;-63
2024/01/18 08:18:10;;;;;;;1999.90;999.90;;;;;;;;;;5053629;28;20202;-64
2024/01/18 08:20:37;;;;;;;1999.90;999.90;;;;;;;;;;5055845;28;20218;-65
2024/01/18 08:23:04;;;;;;;1999.90;999.90;;;;;;;;;;5057917;28;20277;-62
2024/01/18 08:25:33;;;;;;;1999.90;999.90;;;;;;;;;;5055654;28;20219;-64
2024/01/18 08:28:02;;;;;;;1999.90;999.90;;;;;;;;;;5054035;28;20195;-66
2024/01/18 08:30:29;;;;;;;1999.90;999.90;;;;;;;;;;5051234;28;20820;-62
2024/01/18 08:32:57;;;;;;;1999.90;999.90;;;;;;;;;;5055399;28;20223;-63
2024/01/18 08:35:24;;;;;;;1999.90;999.90;;;;;;;;;;5052578;28;20865;-67
2024/01/18 08:37:52;;;;;;;1999.90;999.90;;;;;;;;;;5054455;28;20202;-62
2024/01/18 08:40:20;;;;;;;1999.90;999.90;;;;;;;;;;5053719;28;20858;-63
2024/01/18 08:42:47;;;;;;;1999.90;999.90;;;;;;;;;;5053287;28;20195;-66
2024/01/18 08:45:16;;;;;;;1999.90;999.90;;;;;;;;;;5055490;28;20198;-65
2024/01/18 08:47:43;;;;;;;1999.90;999.90;;;;;;;;;;5053272;28;20199;-63
2024/01/18 08:50:11;;;;;;;1999.90;999.90;;;;;;;;;;5053996;28;20211;-64
2024/01/18 08:52:39;;;;;;;1999.90;999.90;;;;;;;;;;5057386;28;20238;-62
2024/01/18 08:55:08;;;;;;;1999.90;999.90;;;;;;;;;;5055786;28;20750;-67
2024/01/18 08:57:35;;;;;;;1999.90;999.90;;;;;;;;;;5053234;28;20553;-62
2024/01/18 09:00:03;;;;;;;1999.90;999.90;;;;;;;;;;5055829;28;20211;-64
2024/01/18 09:02:32;;;;;;;1999.90;999.90;;;;;;;;;;5048917;28;20286;-64
2024/01/18 09:04:59;;;;;;;1999.90;999.90;;;;;;;;;;5052206;28;20286;-66
2024/01/18 09:07:27;;;;;;;1999.90;999.90;;;;;;;;;;5054461;28;20191;-66
2024/01/18 09:09:54;;;;;;;1999.90;999.90;;;;;;;;;;5054008;28;20206;-64
2024/01/18 09:12:21;;;;;;;1999.90;999.90;;;;;;;;;;5057742;28;20198;-61
2024/01/18 09:14:49;;;;;;;1999.90;999.90;;;;;;;;;;5055260;28;20207;-67
2024/01/18 09:17:16;;;;;;;1999.90;999.90;;;;;;;;;;5084625;28;20198;-67
2024/01/18 09:19:45;;;;;;;1999.90;999.90;;;;;;;;;;5081667;28;20207;-68
2024/01/18 09:22:12;;;;;;;1999.90;999.90;;;;;;;;;;5075823;28;20201;-67
2024/01/18 09:24:40;;;;;;;1999.90;999.90;;;;;;;;;;5079331;28;20204;-68
2024/01/18 09:27:07;;;;;;;1999.90;999.90;;;;;;;;;;5063818;28;20678;-67
2024/01/18 09:29:34;;;;;;;1999.90;999.90;;;;;;;;;;5071277;28;20182;-62
2024/01/18 09:32:01;;;;;;;1999.90;999.90;;;;;;;;;;5075137;28;20246;-67
2024/01/18 09:34:29;;;;;;;1999.90;999.90;;;;;;;;;;5081007;28;20271;-66
2024/01/18 09:36:58;;;;;;;1999.90;999.90;;;;;;;;;;5076061;28;20203;-67
2024/01/18 09:39:25;;;;;;;1999.90;999.90;;;;;;;;;;5085013;28;20209;-68
2024/01/18 09:41:53;;;;;;;1999.90;999.90;;;;;;;;;;5078564;28;20217;-68
2024/01/18 09:44:29;;;;;;;1999.90;999.90;;;;;;;;;;5070397;28;20223;-66
2024/01/18 09:46:58;;;;;;;1999.90;999.90;;;;;;;;;;5072161;28;20278;-66
2024/01/18 09:49:25;;;;;;;1999.90;999.90;;;;;;;;;;5081315;28;20204;-66
2024/01/18 09:51:55;;;;;;;1999.90;999.90;;;;;;;;;;5072093;28;20193;-67
2024/01/18 09:54:24;;;;;;;1999.90;999.90;;;;;;;;;;5072189;28;20224;-68
2024/01/18 09:56:54;;;;;;;1999.90;999.90;;;;;;;;;;5075889;28;20202;-68
2024/01/18 09:59:22;;;;;;;1999.90;999.90;;;;;;;;;;5077307;28;20647;-69
2024/01/18 10:01:50;;;;;;;1999.90;999.90;;;;;;;;;;5077541;28;20221;-70
2024/01/18 10:04:21;;;;;;;1999.90;999.90;;;;;;;;;;5057077;28;20665;-68
2024/01/18 10:06:49;;;;;;;1999.90;999.90;;;;;;;;;;5075565;28;20214;-71
2024/01/18 10:09:16;;;;;;;1999.90;999.90;;;;;;;;;;5070855;28;20202;-62
2024/01/18 10:11:46;;;;;;;1999.90;999.90;;;;;;;;;;5082166;28;20200;-73
2024/01/18 10:14:13;;;;;;;1999.90;999.90;;;;;;;;;;5080944;28;20204;-70
2024/01/18 10:16:41;;;;;;;1999.90;999.90;;;;;;;;;;5074803;28;20194;-71
2024/01/18 10:19:14;;;;;;;1999.90;999.90;;;;;;;;;;5075673;28;20903;-69
2024/01/18 10:21:41;;;;;;;1999.90;999.90;;;;;;;;;;5045720;28;20832;-68
2024/01/18 10:24:12;;;;;;;1999.90;999.90;;;;;;;;;;5049378;28;20198;-68
2024/01/18 10:26:40;;;;;;;1999.90;999.90;;;;;;;;;;5052849;28;20223;-66
2024/01/18 10:29:09;;;;;;;1999.90;999.90;;;;;;;;;;5053167;28;20192;-64
2024/01/18 10:31:39;;;;;;;1999.90;999.90;;;;;;;;;;5054779;28;20290;-64
2024/01/18 10:34:06;;;;;;;1999.90;999.90;;;;;;;;;;5052285;28;20212;-67
2024/01/18 10:36:36;;;;;;;1999.90;999.90;;;;;;;;;;5055153;28;20199;-67
2024/01/18 10:39:16;;;;;;;1999.90;999.90;;;;;;;;;;5054414;28;20202;-66
2024/01/18 10:41:44;;;;;;;1999.90;999.90;;;;;;;;;;5054556;28;20218;-66
2024/01/18 10:44:15;;;;;;;1999.90;999.90;;;;;;;;;;5053545;28;20193;-66
2024/01/18 10:46:42;;;;;;;1999.90;999.90;;;;;;;;;;5056593;28;20201;-67
2024/01/18 10:49:09;;;;;;;1999.90;999.90;;;;;;;;;;5054995;28;20674;-66
2024/01/18 10:51:38;;;;;;;1999.90;999.90;;;;;;;;;;5050179;28;20226;-66
2024/01/18 10:54:07;;;;;;;1999.90;999.90;;;;;;;;;;5052147;28;20207;-65
2024/01/18 10:56:36;;;;;;;1999.90;999.90;;;;;;;;;;5054452;28;20202;-64
2024/01/18 10:59:04;;;;;;;1999.90;999.90;;;;;;;;;;5052917;28;20213;-64
2024/01/18 11:01:33;;;;;;;1999.90;999.90;;;;;;;;;;5053813;28;20230;-65
2024/01/18 11:04:01;;;;;;;1999.90;999.90;;;;;;;;;;5056573;28;20989;-64
2024/01/18 11:06:30;;;;;;;1999.90;999.90;;;;;;;;;;5054662;28;20206;-65
2024/01/18 11:08:58;;;;;;;1999.90;999.90;;;;;;;;;;5052692;28;20205;-65
2024/01/18 11:11:25;;;;;;;1999.90;999.90;;;;;;;;;;5062096;28;20225;-64
2024/01/18 11:13:53;;;;;;;1999.90;999.90;;;;;;;;;;5060460;28;20229;-65
2024/01/18 11:16:21;;;;;;;1999.90;999.90;;;;;;;;;;5066721;28;20206;-64
2024/01/18 11:18:52;;;;;;;1999.90;999.90;;;;;;;;;;5066973;28;20182;-65
2024/01/18 11:21:21;;;;;;;1999.90;999.90;;;;;;;;;;5078740;28;20214;-65
2024/01/18 11:23:49;;;;;;;1999.90;999.90;;;;;;;;;;5082255;28;20536;-64
2024/01/18 11:26:20;;;;;;;1999.90;999.90;;;;;;;;;;5064505;28;20202;-65
2024/01/18 11:28:48;;;;;;;1999.90;999.90;;;;;;;;;;5070177;28;20202;-64
2024/01/18 11:31:15;;;;;;;1999.90;999.90;;;;;;;;;;5064561;28;22074;-64
2024/01/18 11:33:43;;;;;;;1999.90;999.90;;;;;;;;;;5073763;28;20202;-64
2024/01/18 11:36:15;;;;;;;1999.90;999.90;;;;;;;;;;5081787;28;20671;-64
2024/01/18 11:38:45;;;;;;;1999.90;999.90;;;;;;;;;;5073227;28;20196;-65
2024/01/18 11:41:22;;;;;;;1999.90;999.90;;;;;;;;;;5074374;28;20229;-65
2024/01/18 11:43:54;;;;;;;1999.90;999.90;;;;;;;;;;5074557;28;20283;-66
2024/01/18 11:46:33;;;;;;;1999.90;999.90;;;;;;;;;;5083773;28;20194;-64
2024/01/18 11:49:00;;;;;;;1999.90;999.90;;;;;;;;;;5073177;28;20194;-66
2024/01/18 11:51:29;;;;;;;1999.90;999.90;;;;;;;;;;5069666;28;20248;-64
2024/01/18 11:53:59;;;;;;;1999.90;999.90;;;;;;;;;;5076304;28;20223;-64
2024/01/18 11:56:28;;;;;;;1999.90;999.90;;;;;;;;;;5080631;28;20286;-65
2024/01/18 11:58:56;;;;;;;1999.90;999.90;;;;;;;;;;5077497;28;20478;-64
2024/01/18 12:01:24;;;;;;;1999.90;999.90;;;;;;;;;;5068543;28;20313;-65
2024/01/18 12:03:52;;;;;;;1999.90;999.90;;;;;;;;;;5058643;28;20202;-64
2024/01/18 12:06:20;;;;;;;1999.90;999.90;;;;;;;;;;5057167;28;20646;-63
2024/01/18 12:08:48;;;;;;;1999.90;999.90;;;;;;;;;;5057305;28;20649;-63
2024/01/18 12:11:16;;;;;;;1999.90;999.90;;;;;;;;;;5058211;28;20199;-64
2024/01/18 12:13:43;;;;;;;1999.90;999.90;;;;;;;;;;5053585;28;20643;-64
2024/01/18 12:16:11;;;;;;;1999.90;999.90;;;;;;;;;;5057214;28;20264;-63
2024/01/18 12:18:42;;;;;;;1999.90;999.90;;;;;;;;;;5054282;28;20317;-67
2024/01/18 12:21:09;;;;;;;1999.90;999.90;;;;;;;;;;5058141;28;20339;-67
2024/01/18 12:23:37;;;;;;;1999.90;999.90;;;;;;;;;;5059898;28;20286;-65
2024/01/18 12:26:06;;;;;;;1999.90;999.90;;;;;;;;;;5057494;28;20207;-68
2024/01/18 12:28:33;;;;;;;1999.90;999.90;;;;;;;;;;5062858;28;21516;-67
2024/01/18 12:31:01;;;;;;;1999.90;999.90;;;;;;;;;;5063999;28;20202;-66
2024/01/18 12:33:31;;;;;;;1999.90;999.90;;;;;;;;;;5075890;28;20225;-63
2024/01/18 12:36:00;;;;;;;1999.90;999.90;;;;;;;;;;5067871;28;20210;-69
2024/01/18 12:38:27;;;;;;;1999.90;999.90;;;;;;;;;;5057590;28;20663;-69
2024/01/18 12:40:54;;;;;;;1999.90;999.90;;;;;;;;;;5056101;28;20660;-69
2024/01/18 12:43:25;;;;;;;1999.90;999.90;;;;;;;;;;5057101;28;20207;-67
2024/01/18 12:45:53;;;;;;;1999.90;999.90;;;;;;;;;;5053499;28;20282;-68
2024/01/18 12:48:21;;;;;;;1999.90;999.90;;;;;;;;;;5056108;28;20194;-67
2024/01/18 12:50:49;;;;;;;1999.90;999.90;;;;;;;;;;5054868;28;21573;-68
2024/01/18 12:53:16;;;;;;;1999.90;999.90;;;;;;;;;;5053033;28;20195;-64
2024/01/18 12:55:43;;;;;;;1999.90;999.90;;;;;;;;;;5056277;28;20281;-66
2024/01/18 12:58:13;;;;;;;1999.90;999.90;;;;;;;;;;5053164;28;20194;-68
2024/01/18 13:00:41;;;;;;;1999.90;999.90;;;;;;;;;;5053150;28;20283;-70
2024/01/18 13:03:12;;;;;;;1999.90;999.90;;;;;;;;;;5053785;28;20340;-65
2024/01/18 13:05:43;;;;;;;1999.90;999.90;;;;;;;;;;5054804;28;20197;-70
2024/01/18 13:08:11;;;;;;;1999.90;999.90;;;;;;;;;;5055009;28;20206;-71
2024/01/18 13:10:38;;;;;;;1999.90;999.90;;;;;;;;;;5054282;28;20218;-67
2024/01/18 13:13:06;;;;;;;1999.90;999.90;;;;;;;;;;5051696;28;20225;-68
2024/01/18 13:15:33;;;;;;;1999.90;999.90;;;;;;;;;;5052273;28;20429;-71
2024/01/18 13:18:04;;;;;;;1999.90;999.90;;;;;;;;;;5056194;28;20196;-71
2024/01/18 13:20:31;;;;;;;1999.90;999.90;;;;;;;;;;5056171;28;20209;-72
2024/01/18 13:22:58;;;;;;;1999.90;999.90;;;;;;;;;;5052641;28;20229;-77
2024/01/18 13:25:26;;;;;;;1999.90;999.90;;;;;;;;;;5054391;28;21171;-76
2024/01/18 13:27:53;;;;;;;1999.90;999.90;;;;;;;;;;5052321;28;20220;-74
2024/01/18 13:30:20;;;;;;;1999.90;999.90;;;;;;;;;;5050434;28;20215;-71
2024/01/18 13:32:49;;;;;;;1999.90;999.90;;;;;;;;;;5051881;28;20731;-74
2024/01/18 13:35:18;;;;;;;1999.90;999.90;;;;;;;;;;5055491;28;20285;-71
2024/01/18 13:37:46;;;;;;;1999.90;999.90;;;;;;;;;;5054892;28;20260;-74
2024/01/18 13:40:13;;;;;;;1999.90;999.90;;;;;;;;;;5052161;28;20213;-74
2024/01/18 13:42:41;;;;;;;1999.90;999.90;;;;;;;;;;5051045;28;20222;-72
2024/01/18 13:45:08;;;;;;;1999.90;999.90;;;;;;;;;;5053670;28;20299;-73
2024/01/18 13:47:36;;;;;;;1999.90;999.90;;;;;;;;;;5054688;28;20199;-71